KGNV 220453Z AUTO 00000KT 10SM CLR 21/20 A3009 RMK AO2 SLP187 T02110200 403280206